Airport ID:KE16
Update Time (UTC):13 DEC 18 15:57
Wind Speed (Knots):CALM
Wind Direction (Magnetic):
Temperature (°C):4
Dew Point (°C):3
Humidity (%):90
Altimeter (inHg):30.3
Density Altitude (Feet):
Visibility (Miles):10
Clouds (Hundreds of feet):CLR
Present Weather:NO PRECIPITATION
METAR:METAR KE16 131555Z AUTO 02004KT 10SM CLR 04/03 A3030 RMK AO2

The data displayed is for advisory purposes only and is not to be used for flight planning or operations.

This page is not automatically refreshed. Reload the page to see current data.